PWSweather.com
Personal Weather Stations
Station Observations
BAYPARK
Bay Park, Ny, East Rockaway, NY 11518

Bay Park, NyEast Rockaway, NY 11518

Lat: 40.6310098, Lon: -73.6727287

Elevation: 11

Station Type: AcuRite Pro

https://www.awekas.at/en/instrument.php?id=14894

High Low Average
Temperature 76.9°F24.9°C 62.8°F17.1°C 70.7°F21.5°C
Dew Point 70.0°F21.1°C 56.1°F13.4°C 64.4°F18.0°C
Winds 5.2 mph 8.4 kmh Calm Calm 2.0 mph SW3.2 kmh SW
Wind Gusts 9.4 mph15.1 kmh -- 4.0 mph6.4 kmh
Humidity 94% 66% 81%
Pressure 30.44 in1030.8 mb 30.20 in1022.7 mb -
Precipitation 0.00 in0.0 mm - -
Hour Temp Dew Point Humidity Winds Wind Gusts Pressure Precip Precip Rate Daily Precip Total
12:00 AM 63.1°F17.3°C 56.1°F13.4°C 78% 1.0 mph SE1.6 kmh SE 2.7 mph4.3 kmh 30.44 in1030.8 mb 0.00 in0.0 mm 0.00 in0.0 mm 0.00 in0.0 mm
12:05 AM 63.1°F17.3°C 56.1°F13.4°C 78% 1.0 mph SSE1.6 kmh SSE 3.2 mph5.1 kmh 30.44 in1030.8 mb 0.00 in0.0 mm 0.00 in0.0 mm 0.00 in0.0 mm
12:10 AM 63.1°F17.3°C 56.3°F13.5°C 78% 0.5 mph ESE0.8 kmh ESE 2.2 mph3.5 kmh 30.44 in1030.8 mb 0.00 in0.0 mm 0.00 in0.0 mm 0.00 in0.0 mm
12:15 AM 63.1°F17.3°C 56.4°F13.6°C 79% 0.9 mph SSE1.4 kmh SSE 3.2 mph5.1 kmh 30.43 in1030.5 mb 0.00 in0.0 mm 0.00 in0.0 mm 0.00 in0.0 mm
12:20 AM 62.9°F17.2°C 56.3°F13.5°C 79% 0.4 mph SSE0.6 kmh SSE 1.1 mph1.8 kmh 30.43 in1030.5 mb 0.00 in0.0 mm 0.00 in0.0 mm 0.00 in0.0 mm
12:25 AM 62.8°F17.1°C 56.5°F13.6°C 80% 0.3 mph S0.5 kmh S 1.7 mph2.7 kmh 30.43 in1030.5 mb 0.00 in0.0 mm 0.00 in0.0 mm 0.00 in0.0 mm
12:30 AM 62.8°F17.1°C 56.5°F13.6°C 80% 0.3 mph S0.5 kmh S 1.7 mph2.7 kmh 30.43 in1030.5 mb 0.00 in0.0 mm 0.00 in0.0 mm 0.00 in0.0 mm
12:35 AM 63.2°F17.3°C 56.9°F13.8°C 80% 1.4 mph SE2.3 kmh SE 3.2 mph5.1 kmh 30.43 in1030.5 mb 0.00 in0.0 mm 0.00 in0.0 mm 0.00 in0.0 mm
12:40 AM 63.5°F17.5°C 56.9°F13.8°C 79% 0.9 mph SSE1.4 kmh SSE 2.2 mph3.5 kmh 30.43 in1030.5 mb 0.00 in0.0 mm 0.00 in0.0 mm 0.00 in0.0 mm
12:45 AM 63.3°F17.4°C 56.9°F13.8°C 80% 0.9 mph SE1.4 kmh SE 2.7 mph4.3 kmh 30.43 in1030.5 mb 0.00 in0.0 mm 0.00 in0.0 mm 0.00 in0.0 mm
12:50 AM 63.3°F17.4°C 57.0°F13.9°C 80% 0.6 mph SE1.0 kmh SE 2.2 mph3.5 kmh 30.42 in1030.1 mb 0.00 in0.0 mm 0.00 in0.0 mm 0.00 in0.0 mm
12:55 AM 63.1°F17.3°C 57.1°F13.9°C 81% 0.6 mph SSE1.0 kmh SSE 1.7 mph2.7 kmh 30.42 in1030.1 mb 0.00 in0.0 mm 0.00 in0.0 mm 0.00 in0.0 mm
01:00 AM 63.1°F17.3°C 57.2°F14.0°C 81% 0.8 mph SE1.3 kmh SE 2.7 mph4.3 kmh 30.42 in1030.1 mb 0.00 in0.0 mm 0.00 in0.0 mm 0.00 in0.0 mm
01:05 AM 63.1°F17.3°C 57.2°F14.0°C 81% 0.6 mph S1.0 kmh S 1.7 mph2.7 kmh 30.42 in1030.1 mb 0.00 in0.0 mm 0.00 in0.0 mm 0.00 in0.0 mm
01:10 AM 63.1°F17.3°C 56.9°F13.8°C 80% 0.3 mph ESE0.5 kmh ESE 1.7 mph2.7 kmh 30.42 in1030.1 mb 0.00 in0.0 mm 0.00 in0.0 mm 0.00 in0.0 mm
01:15 AM 63.2°F17.3°C 57.1°F13.9°C 81% 0.9 mph SSE1.4 kmh SSE 2.2 mph3.5 kmh 30.41 in1029.8 mb 0.00 in0.0 mm 0.00 in0.0 mm 0.00 in0.0 mm
01:20 AM 63.3°F17.4°C 57.0°F13.9°C 80% 0.6 mph SE1.0 kmh SE 2.7 mph4.3 kmh 30.41 in1029.8 mb 0.00 in0.0 mm 0.00 in0.0 mm 0.00 in0.0 mm
01:25 AM 63.3°F17.4°C 57.0°F13.9°C 80% 1.2 mph SE1.9 kmh SE 2.7 mph4.3 kmh 30.41 in1029.8 mb 0.00 in0.0 mm 0.00 in0.0 mm 0.00 in0.0 mm
01:30 AM 63.4°F17.4°C 57.1°F13.9°C 80% 1.0 mph SE1.6 kmh SE 2.7 mph4.3 kmh 30.41 in1029.8 mb 0.00 in0.0 mm 0.00 in0.0 mm 0.00 in0.0 mm
01:35 AM 63.5°F17.5°C 57.5°F14.2°C 81% 0.4 mph SW0.6 kmh SW 1.1 mph1.8 kmh 30.41 in1029.8 mb 0.00 in0.0 mm 0.00 in0.0 mm 0.00 in0.0 mm
01:40 AM 63.4°F17.4°C 57.4°F14.1°C 81% 0.8 mph SSE1.3 kmh SSE 2.7 mph4.3 kmh 30.40 in1029.5 mb 0.00 in0.0 mm 0.00 in0.0 mm 0.00 in0.0 mm
01:45 AM 63.2°F17.3°C 57.3°F14.1°C 81% 0.6 mph SSW1.0 kmh SSW 2.2 mph3.5 kmh 30.40 in1029.5 mb 0.00 in0.0 mm 0.00 in0.0 mm 0.00 in0.0 mm
01:50 AM 63.3°F17.4°C 57.4°F14.1°C 81% 0.7 mph SSW1.1 kmh SSW 1.7 mph2.7 kmh 30.40 in1029.5 mb 0.00 in0.0 mm 0.00 in0.0 mm 0.00 in0.0 mm
01:55 AM 63.1°F17.3°C 57.2°F14.0°C 81% 0.2 mph S0.3 kmh S 1.7 mph2.7 kmh 30.39 in1029.1 mb 0.00 in0.0 mm 0.00 in0.0 mm 0.00 in0.0 mm
02:00 AM 63.1°F17.3°C 57.3°F14.1°C 81% 0.4 mph S0.6 kmh S 2.7 mph4.3 kmh 30.39 in1029.1 mb 0.00 in0.0 mm 0.00 in0.0 mm 0.00 in0.0 mm
02:05 AM 63.3°F17.4°C 57.7°F14.3°C 82% 0.8 mph S1.3 kmh S 2.7 mph4.3 kmh 30.39 in1029.1 mb 0.00 in0.0 mm 0.00 in0.0 mm 0.00 in0.0 mm
02:10 AM 63.7°F17.6°C 57.7°F14.3°C 81% 0.6 mph S1.0 kmh S 4.2 mph6.8 kmh 30.39 in1029.1 mb 0.00 in0.0 mm 0.00 in0.0 mm 0.00 in0.0 mm
02:15 AM 63.5°F17.5°C 57.6°F14.2°C 81% Calm Calm -- 30.39 in1029.1 mb 0.00 in0.0 mm 0.00 in0.0 mm 0.00 in0.0 mm
02:20 AM 63.4°F17.4°C 57.6°F14.2°C 81% 0.2 mph SE0.3 kmh SE 1.7 mph2.7 kmh 30.39 in1029.1 mb 0.00 in0.0 mm 0.00 in0.0 mm 0.00 in0.0 mm
02:25 AM 63.2°F17.3°C 57.6°F14.2°C 82% 0.2 mph SSE0.3 kmh SSE 1.7 mph2.7 kmh 30.39 in1029.1 mb 0.00 in0.0 mm 0.00 in0.0 mm 0.00 in0.0 mm
02:30 AM 63.1°F17.3°C 57.9°F14.4°C 83% 0.3 mph S0.5 kmh S 1.7 mph2.7 kmh 30.39 in1029.1 mb 0.00 in0.0 mm 0.00 in0.0 mm 0.00 in0.0 mm
02:35 AM 63.3°F17.4°C 58.1°F14.5°C 83% 0.5 mph S0.8 kmh S 1.7 mph2.7 kmh 30.39 in1029.1 mb 0.00 in0.0 mm 0.00 in0.0 mm 0.00 in0.0 mm
02:40 AM 63.6°F17.6°C 58.3°F14.6°C 83% 0.4 mph SSE0.6 kmh SSE 1.7 mph2.7 kmh 30.38 in1028.8 mb 0.00 in0.0 mm 0.00 in0.0 mm 0.00 in0.0 mm
02:45 AM 63.7°F17.6°C 58.4°F14.7°C 83% 0.2 mph N0.3 kmh N 2.2 mph3.5 kmh 30.38 in1028.8 mb 0.00 in0.0 mm 0.00 in0.0 mm 0.00 in0.0 mm
02:50 AM 64.0°F17.8°C 58.3°F14.6°C 82% 1.0 mph S1.6 kmh S 1.7 mph2.7 kmh 30.38 in1028.8 mb 0.00 in0.0 mm 0.00 in0.0 mm 0.00 in0.0 mm
02:55 AM 64.4°F18.0°C 58.1°F14.5°C 80% 1.7 mph SSE2.7 kmh SSE 3.2 mph5.1 kmh 30.38 in1028.8 mb 0.00 in0.0 mm 0.00 in0.0 mm 0.00 in0.0 mm
03:00 AM 64.8°F18.2°C 58.0°F14.4°C 79% 1.1 mph WSW1.8 kmh WSW 3.2 mph5.1 kmh 30.38 in1028.8 mb 0.00 in0.0 mm 0.00 in0.0 mm 0.00 in0.0 mm
03:05 AM 64.9°F18.3°C 57.9°F14.4°C 78% 1.1 mph SSE1.8 kmh SSE 2.2 mph3.5 kmh 30.38 in1028.8 mb 0.00 in0.0 mm 0.00 in0.0 mm 0.00 in0.0 mm
03:10 AM 64.9°F18.3°C 57.5°F14.2°C 77% 1.1 mph S1.8 kmh S 2.2 mph3.5 kmh 30.38 in1028.8 mb 0.00 in0.0 mm 0.00 in0.0 mm 0.00 in0.0 mm
03:15 AM 64.9°F18.3°C 57.0°F13.9°C 76% 1.7 mph S2.7 kmh S 2.7 mph4.3 kmh 30.38 in1028.8 mb 0.00 in0.0 mm 0.00 in0.0 mm 0.00 in0.0 mm
03:20 AM 65.1°F18.4°C 56.6°F13.7°C 74% 1.4 mph S2.3 kmh S 2.2 mph3.5 kmh 30.38 in1028.8 mb 0.00 in0.0 mm 0.00 in0.0 mm 0.00 in0.0 mm
03:25 AM 65.1°F18.4°C 56.6°F13.7°C 74% 0.7 mph SW1.1 kmh SW 2.2 mph3.5 kmh 30.38 in1028.8 mb 0.00 in0.0 mm 0.00 in0.0 mm 0.00 in0.0 mm
03:30 AM 64.9°F18.3°C 56.4°F13.6°C 74% 0.5 mph S0.8 kmh S 1.1 mph1.8 kmh 30.38 in1028.8 mb 0.00 in0.0 mm 0.00 in0.0 mm 0.00 in0.0 mm
03:35 AM 64.9°F18.3°C 56.7°F13.7°C 75% 0.1 mph N0.2 kmh N 1.1 mph1.8 kmh 30.38 in1028.8 mb 0.00 in0.0 mm 0.00 in0.0 mm 0.00 in0.0 mm
03:40 AM 64.7°F18.2°C 56.6°F13.7°C 75% 0.2 mph N0.3 kmh N 1.7 mph2.7 kmh 30.38 in1028.8 mb 0.00 in0.0 mm 0.00 in0.0 mm 0.00 in0.0 mm
03:45 AM 64.6°F18.1°C 56.7°F13.7°C 76% 0.2 mph SSE0.3 kmh SSE 1.7 mph2.7 kmh 30.38 in1028.8 mb 0.00 in0.0 mm 0.00 in0.0 mm 0.00 in0.0 mm
03:50 AM 64.6°F18.1°C 56.9°F13.8°C 76% 0.8 mph S1.3 kmh S 1.7 mph2.7 kmh 30.37 in1028.4 mb 0.00 in0.0 mm 0.00 in0.0 mm 0.00 in0.0 mm
03:55 AM 64.6°F18.1°C 56.9°F13.8°C 76% 0.1 mph SW0.2 kmh SW 1.1 mph1.8 kmh 30.37 in1028.4 mb 0.00 in0.0 mm 0.00 in0.0 mm 0.00 in0.0 mm
04:00 AM 64.6°F18.1°C 56.9°F13.8°C 76% 0.6 mph SW1.0 kmh SW 2.2 mph3.5 kmh 30.37 in1028.4 mb 0.00 in0.0 mm 0.00 in0.0 mm 0.00 in0.0 mm
04:05 AM 64.6°F18.1°C 57.1°F13.9°C 77% 0.1 mph SSE0.2 kmh SSE 1.1 mph1.8 kmh 30.37 in1028.4 mb 0.00 in0.0 mm 0.00 in0.0 mm 0.00 in0.0 mm
04:10 AM 64.6°F18.1°C 57.6°F14.2°C 78% 0.5 mph S0.8 kmh S 1.1 mph1.8 kmh 30.37 in1028.4 mb 0.00 in0.0 mm 0.00 in0.0 mm 0.00 in0.0 mm
04:15 AM 64.7°F18.2°C 57.7°F14.3°C 78% 0.8 mph S1.3 kmh S 2.2 mph3.5 kmh 30.37 in1028.4 mb 0.00 in0.0 mm 0.00 in0.0 mm 0.00 in0.0 mm
04:20 AM 64.9°F18.3°C 57.8°F14.3°C 78% 1.2 mph S1.9 kmh S 1.7 mph2.7 kmh 30.37 in1028.4 mb 0.00 in0.0 mm 0.00 in0.0 mm 0.00 in0.0 mm
04:25 AM 65.1°F18.4°C 57.7°F14.3°C 77% 1.3 mph S2.1 kmh S 2.7 mph4.3 kmh 30.37 in1028.4 mb 0.00 in0.0 mm 0.00 in0.0 mm 0.00 in0.0 mm
04:30 AM 65.1°F18.4°C 57.9°F14.4°C 78% 0.6 mph SSW1.0 kmh SSW 1.1 mph1.8 kmh 30.37 in1028.4 mb 0.00 in0.0 mm 0.00 in0.0 mm 0.00 in0.0 mm
04:35 AM 64.9°F18.3°C 57.9°F14.4°C 78% 0.2 mph S0.3 kmh S 1.1 mph1.8 kmh 30.37 in1028.4 mb 0.00 in0.0 mm 0.00 in0.0 mm 0.00 in0.0 mm
04:40 AM 64.8°F18.2°C 57.8°F14.3°C 78% 0.8 mph WSW1.3 kmh WSW 2.2 mph3.5 kmh 30.38 in1028.8 mb 0.00 in0.0 mm 0.00 in0.0 mm 0.00 in0.0 mm
04:45 AM 64.9°F18.3°C 57.9°F14.4°C 78% 0.2 mph SSE0.3 kmh SSE 1.1 mph1.8 kmh 30.38 in1028.8 mb 0.00 in0.0 mm 0.00 in0.0 mm 0.00 in0.0 mm
04:50 AM 64.9°F18.3°C 58.1°F14.5°C 79% 0.1 mph ENE0.2 kmh ENE 1.1 mph1.8 kmh 30.38 in1028.8 mb 0.00 in0.0 mm 0.00 in0.0 mm 0.00 in0.0 mm
04:55 AM 64.9°F18.3°C 58.2°F14.6°C 79% 0.2 mph SE0.3 kmh SE 1.7 mph2.7 kmh 30.38 in1028.8 mb 0.00 in0.0 mm 0.00 in0.0 mm 0.00 in0.0 mm
05:00 AM 64.9°F18.3°C 58.2°F14.6°C 79% Calm Calm -- 30.38 in1028.8 mb 0.00 in0.0 mm 0.00 in0.0 mm 0.00 in0.0 mm
05:05 AM 64.9°F18.3°C 58.2°F14.6°C 79% Calm Calm -- 30.38 in1028.8 mb 0.00 in0.0 mm 0.00 in0.0 mm 0.00 in0.0 mm
05:10 AM 64.9°F18.3°C 58.2°F14.6°C 79% 0.1 mph SSW0.2 kmh SSW 1.7 mph2.7 kmh 30.38 in1028.8 mb 0.00 in0.0 mm 0.00 in0.0 mm 0.00 in0.0 mm
05:15 AM 65.1°F18.4°C 58.7°F14.8°C 80% 0.3 mph SE0.5 kmh SE 2.7 mph4.3 kmh 30.38 in1028.8 mb 0.00 in0.0 mm 0.00 in0.0 mm 0.00 in0.0 mm
05:20 AM 65.3°F18.5°C 58.8°F14.9°C 80% 0.3 mph S0.5 kmh S 1.7 mph2.7 kmh 30.38 in1028.8 mb 0.00 in0.0 mm 0.00 in0.0 mm 0.00 in0.0 mm
05:25 AM 65.3°F18.5°C 58.6°F14.8°C 79% 0.2 mph SSW0.3 kmh SSW 1.7 mph2.7 kmh 30.38 in1028.8 mb 0.00 in0.0 mm 0.00 in0.0 mm 0.00 in0.0 mm
05:30 AM 65.3°F18.5°C 58.8°F14.9°C 80% 0.1 mph SW0.2 kmh SW 1.1 mph1.8 kmh 30.37 in1028.4 mb 0.00 in0.0 mm 0.00 in0.0 mm 0.00 in0.0 mm
05:35 AM 65.3°F18.5°C 59.0°F15.0°C 80% 0.3 mph SSE0.5 kmh SSE 1.7 mph2.7 kmh 30.37 in1028.4 mb 0.00 in0.0 mm 0.00 in0.0 mm 0.00 in0.0 mm
05:40 AM 65.3°F18.5°C 58.8°F14.9°C 79% 0.2 mph S0.3 kmh S 1.7 mph2.7 kmh 30.38 in1028.8 mb 0.00 in0.0 mm 0.00 in0.0 mm 0.00 in0.0 mm
05:45 AM 65.5°F18.6°C 58.8°F14.9°C 79% 0.4 mph W0.6 kmh W 1.7 mph2.7 kmh 30.38 in1028.8 mb 0.00 in0.0 mm 0.00 in0.0 mm 0.00 in0.0 mm
05:50 AM 65.8°F18.8°C 58.8°F14.9°C 78% 0.5 mph SSE0.8 kmh SSE 1.7 mph2.7 kmh 30.38 in1028.8 mb 0.00 in0.0 mm 0.00 in0.0 mm 0.00 in0.0 mm
05:55 AM 66.0°F18.9°C 59.0°F15.0°C 78% 0.5 mph S0.8 kmh S 1.7 mph2.7 kmh 30.38 in1028.8 mb 0.00 in0.0 mm 0.00 in0.0 mm 0.00 in0.0 mm
06:00 AM 66.2°F19.0°C 59.2°F15.1°C 78% 0.6 mph S1.0 kmh S 1.7 mph2.7 kmh 30.38 in1028.8 mb 0.00 in0.0 mm 0.00 in0.0 mm 0.00 in0.0 mm
06:05 AM 66.4°F19.1°C 59.3°F15.2°C 78% 0.6 mph SE1.0 kmh SE 1.7 mph2.7 kmh 30.37 in1028.4 mb 0.00 in0.0 mm 0.00 in0.0 mm 0.00 in0.0 mm
06:10 AM 66.4°F19.1°C 59.3°F15.2°C 78% 0.5 mph SSW0.8 kmh SSW 1.7 mph2.7 kmh 30.37 in1028.4 mb 0.00 in0.0 mm 0.00 in0.0 mm 0.00 in0.0 mm
06:15 AM 66.4°F19.1°C 59.6°F15.3°C 79% 0.2 mph S0.3 kmh S 1.1 mph1.8 kmh 30.37 in1028.4 mb 0.00 in0.0 mm 0.00 in0.0 mm 0.00 in0.0 mm
06:20 AM 66.3°F19.1°C 59.7°F15.4°C 80% 0.1 mph W0.2 kmh W 1.1 mph1.8 kmh 30.37 in1028.4 mb 0.00 in0.0 mm 0.00 in0.0 mm 0.00 in0.0 mm
06:25 AM 66.2°F19.0°C 59.8°F15.4°C 80% Calm Calm -- 30.37 in1028.4 mb 0.00 in0.0 mm 0.00 in0.0 mm 0.00 in0.0 mm
06:30 AM 66.2°F19.0°C 59.8°F15.4°C 80% Calm Calm -- 30.37 in1028.4 mb 0.00 in0.0 mm 0.00 in0.0 mm 0.00 in0.0 mm
06:35 AM 66.2°F19.0°C 59.9°F15.5°C 80% 0.1 mph SSE0.2 kmh SSE 1.1 mph1.8 kmh 30.37 in1028.4 mb 0.00 in0.0 mm 0.00 in0.0 mm 0.00 in0.0 mm
06:40 AM 66.6°F19.2°C 60.1°F15.6°C 80% 0.6 mph S1.0 kmh S 1.7 mph2.7 kmh 30.36 in1028.1 mb 0.00 in0.0 mm 0.00 in0.0 mm 0.00 in0.0 mm
06:45 AM 66.8°F19.3°C 60.1°F15.6°C 79% 0.5 mph SE0.8 kmh SE 1.7 mph2.7 kmh 30.36 in1028.1 mb 0.00 in0.0 mm 0.00 in0.0 mm 0.00 in0.0 mm
06:50 AM 67.2°F19.6°C 60.5°F15.8°C 79% 0.9 mph SSW1.4 kmh SSW 1.7 mph2.7 kmh 30.36 in1028.1 mb 0.00 in0.0 mm 0.00 in0.0 mm 0.00 in0.0 mm
06:55 AM 67.5°F19.7°C 60.8°F16.0°C 79% 1.0 mph SSW1.6 kmh SSW 2.7 mph4.3 kmh 30.36 in1028.1 mb 0.00 in0.0 mm 0.00 in0.0 mm 0.00 in0.0 mm
07:00 AM 68.2°F20.1°C 60.8°F16.0°C 77% 1.7 mph SSW2.7 kmh SSW 2.7 mph4.3 kmh 30.36 in1028.1 mb 0.00 in0.0 mm 0.00 in0.0 mm 0.00 in0.0 mm
07:05 AM 69.3°F20.7°C 61.3°F16.3°C 76% 1.4 mph SW2.3 kmh SW 2.7 mph4.3 kmh 30.36 in1028.1 mb 0.00 in0.0 mm 0.00 in0.0 mm 0.00 in0.0 mm
07:10 AM 69.4°F20.8°C 60.9°F16.1°C 75% 0.8 mph S1.3 kmh S 2.2 mph3.5 kmh 30.36 in1028.1 mb 0.00 in0.0 mm 0.00 in0.0 mm 0.00 in0.0 mm
07:15 AM 69.2°F20.7°C 60.9°F16.1°C 75% 0.4 mph N0.6 kmh N 2.2 mph3.5 kmh 30.36 in1028.1 mb 0.00 in0.0 mm 0.00 in0.0 mm 0.00 in0.0 mm
07:20 AM 69.0°F20.6°C 60.9°F16.1°C 76% 0.4 mph SSE0.6 kmh SSE 2.2 mph3.5 kmh 30.36 in1028.1 mb 0.00 in0.0 mm 0.00 in0.0 mm 0.00 in0.0 mm
07:25 AM 69.4°F20.8°C 61.5°F16.4°C 76% 0.5 mph S0.8 kmh S 1.7 mph2.7 kmh 30.36 in1028.1 mb 0.00 in0.0 mm 0.00 in0.0 mm 0.00 in0.0 mm
07:30 AM 70.2°F21.2°C 61.8°F16.6°C 75% 1.1 mph S1.8 kmh S 3.2 mph5.1 kmh 30.36 in1028.1 mb 0.00 in0.0 mm 0.00 in0.0 mm 0.00 in0.0 mm
07:35 AM 70.6°F21.4°C 61.4°F16.3°C 73% 1.3 mph S2.1 kmh S 2.7 mph4.3 kmh 30.36 in1028.1 mb 0.00 in0.0 mm 0.00 in0.0 mm 0.00 in0.0 mm
07:40 AM 71.0°F21.7°C 61.5°F16.4°C 72% 1.2 mph SW1.9 kmh SW 1.7 mph2.7 kmh 30.36 in1028.1 mb 0.00 in0.0 mm 0.00 in0.0 mm 0.00 in0.0 mm
07:45 AM 71.5°F21.9°C 62.0°F16.7°C 72% 1.7 mph S2.7 kmh S 3.2 mph5.1 kmh 30.36 in1028.1 mb 0.00 in0.0 mm 0.00 in0.0 mm 0.00 in0.0 mm
07:50 AM 71.9°F22.2°C 62.0°F16.7°C 71% 2.2 mph SW3.5 kmh SW 2.7 mph4.3 kmh 30.36 in1028.1 mb 0.00 in0.0 mm 0.00 in0.0 mm 0.00 in0.0 mm
07:55 AM 72.1°F22.3°C 62.4°F16.9°C 72% 1.4 mph SW2.3 kmh SW 2.7 mph4.3 kmh 30.36 in1028.1 mb 0.00 in0.0 mm 0.00 in0.0 mm 0.00 in0.0 mm
08:00 AM 72.1°F22.3°C 62.2°F16.8°C 71% 1.6 mph S2.6 kmh S 3.2 mph5.1 kmh 30.36 in1028.1 mb 0.00 in0.0 mm 0.00 in0.0 mm 0.00 in0.0 mm
08:05 AM 72.1°F22.3°C 61.4°F16.3°C 69% 1.1 mph WNW1.8 kmh WNW 2.7 mph4.3 kmh 30.36 in1028.1 mb 0.00 in0.0 mm 0.00 in0.0 mm 0.00 in0.0 mm
08:10 AM 72.3°F22.4°C 61.5°F16.4°C 69% 1.1 mph SW1.8 kmh SW 2.7 mph4.3 kmh 30.36 in1028.1 mb 0.00 in0.0 mm 0.00 in0.0 mm 0.00 in0.0 mm
08:15 AM 72.2°F22.3°C 61.5°F16.4°C 69% 1.5 mph SW2.4 kmh SW 2.7 mph4.3 kmh 30.36 in1028.1 mb 0.00 in0.0 mm 0.00 in0.0 mm 0.00 in0.0 mm
08:20 AM 72.3°F22.4°C 61.5°F16.4°C 69% 2.0 mph SW3.2 kmh SW 4.2 mph6.8 kmh 30.36 in1028.1 mb 0.00 in0.0 mm 0.00 in0.0 mm 0.00 in0.0 mm
08:25 AM 72.3°F22.4°C 61.3°F16.3°C 68% 2.4 mph SW3.9 kmh SW 4.2 mph6.8 kmh 30.36 in1028.1 mb 0.00 in0.0 mm 0.00 in0.0 mm 0.00 in0.0 mm
08:30 AM 72.6°F22.6°C 61.7°F16.5°C 69% 2.5 mph WSW4.0 kmh WSW 4.2 mph6.8 kmh 30.37 in1028.4 mb 0.00 in0.0 mm 0.00 in0.0 mm 0.00 in0.0 mm
08:35 AM 72.4°F22.4°C 61.5°F16.4°C 68% 2.6 mph SW4.2 kmh SW 4.2 mph6.8 kmh 30.37 in1028.4 mb 0.00 in0.0 mm 0.00 in0.0 mm 0.00 in0.0 mm
08:40 AM 71.9°F22.2°C 61.3°F16.3°C 69% 1.8 mph SW2.9 kmh SW 2.7 mph4.3 kmh 30.37 in1028.4 mb 0.00 in0.0 mm 0.00 in0.0 mm 0.00 in0.0 mm
08:45 AM 72.2°F22.3°C 61.9°F16.6°C 70% 2.1 mph SSW3.4 kmh SSW 4.2 mph6.8 kmh 30.37 in1028.4 mb 0.00 in0.0 mm 0.00 in0.0 mm 0.00 in0.0 mm
08:50 AM 72.6°F22.6°C 62.1°F16.7°C 70% 2.6 mph SW4.2 kmh SW 4.2 mph6.8 kmh 30.37 in1028.4 mb 0.00 in0.0 mm 0.00 in0.0 mm 0.00 in0.0 mm
08:55 AM 72.7°F22.6°C 61.9°F16.6°C 69% 1.5 mph SSW2.4 kmh SSW 2.2 mph3.5 kmh 30.37 in1028.4 mb 0.00 in0.0 mm 0.00 in0.0 mm 0.00 in0.0 mm
09:00 AM 73.0°F22.8°C 62.2°F16.8°C 69% 1.8 mph SW2.9 kmh SW 2.7 mph4.3 kmh 30.37 in1028.4 mb 0.00 in0.0 mm 0.00 in0.0 mm 0.00 in0.0 mm
09:05 AM 73.4°F23.0°C 62.4°F16.9°C 69% 2.7 mph SSW4.3 kmh SSW 6.8 mph10.9 kmh 30.36 in1028.1 mb 0.00 in0.0 mm 0.00 in0.0 mm 0.00 in0.0 mm
09:10 AM 73.8°F23.2°C 62.5°F16.9°C 68% 1.4 mph SW2.3 kmh SW 3.7 mph6.0 kmh 30.36 in1028.1 mb 0.00 in0.0 mm 0.00 in0.0 mm 0.00 in0.0 mm
09:15 AM 74.4°F23.6°C 63.3°F17.4°C 68% 1.6 mph SSW2.6 kmh SSW 3.2 mph5.1 kmh 30.36 in1028.1 mb 0.00 in0.0 mm 0.00 in0.0 mm 0.00 in0.0 mm
09:20 AM 74.9°F23.8°C 63.6°F17.6°C 68% 1.3 mph SW2.1 kmh SW 2.7 mph4.3 kmh 30.36 in1028.1 mb 0.00 in0.0 mm 0.00 in0.0 mm 0.00 in0.0 mm
09:25 AM 74.5°F23.6°C 63.3°F17.4°C 68% 1.7 mph SW2.7 kmh SW 3.7 mph6.0 kmh 30.36 in1028.1 mb 0.00 in0.0 mm 0.00 in0.0 mm 0.00 in0.0 mm
09:30 AM 74.6°F23.7°C 63.4°F17.4°C 68% 2.2 mph SW3.5 kmh SW 4.2 mph6.8 kmh 30.36 in1028.1 mb 0.00 in0.0 mm 0.00 in0.0 mm 0.00 in0.0 mm
09:35 AM 74.5°F23.6°C 63.3°F17.4°C 68% 2.6 mph SW4.2 kmh SW 3.7 mph6.0 kmh 30.36 in1028.1 mb 0.00 in0.0 mm 0.00 in0.0 mm 0.00 in0.0 mm
09:40 AM 75.0°F23.9°C 63.8°F17.7°C 68% 2.0 mph SW3.2 kmh SW 3.2 mph5.1 kmh 30.36 in1028.1 mb 0.00 in0.0 mm 0.00 in0.0 mm 0.00 in0.0 mm
09:45 AM 75.6°F24.2°C 64.4°F18.0°C 68% 2.0 mph SSW3.2 kmh SSW 3.7 mph6.0 kmh 30.36 in1028.1 mb 0.00 in0.0 mm 0.00 in0.0 mm 0.00 in0.0 mm
09:50 AM 75.7°F24.3°C 64.4°F18.0°C 68% 1.5 mph SW2.4 kmh SW 3.7 mph6.0 kmh 30.35 in1027.8 mb 0.00 in0.0 mm 0.00 in0.0 mm 0.00 in0.0 mm
09:55 AM 75.7°F24.3°C 64.4°F18.0°C 68% 1.5 mph SW2.4 kmh SW 3.2 mph5.1 kmh 30.35 in1027.8 mb 0.00 in0.0 mm 0.00 in0.0 mm 0.00 in0.0 mm
10:00 AM 76.0°F24.4°C 64.4°F18.0°C 67% 1.8 mph S2.9 kmh S 2.7 mph4.3 kmh 30.35 in1027.8 mb 0.00 in0.0 mm 0.00 in0.0 mm 0.00 in0.0 mm
10:05 AM 76.0°F24.4°C 64.1°F17.8°C 67% 2.1 mph SW3.4 kmh SW 3.7 mph6.0 kmh 30.35 in1027.8 mb 0.00 in0.0 mm 0.00 in0.0 mm 0.00 in0.0 mm
10:10 AM 76.4°F24.7°C 64.4°F18.0°C 67% 2.6 mph SSW4.2 kmh SSW 3.7 mph6.0 kmh 30.35 in1027.8 mb 0.00 in0.0 mm 0.00 in0.0 mm 0.00 in0.0 mm
10:15 AM 75.8°F24.3°C 64.3°F17.9°C 68% 2.6 mph SW4.2 kmh SW 4.2 mph6.8 kmh 30.35 in1027.8 mb 0.00 in0.0 mm 0.00 in0.0 mm 0.00 in0.0 mm
10:20 AM 76.4°F24.7°C 64.7°F18.2°C 67% 2.2 mph SW3.5 kmh SW 4.7 mph7.6 kmh 30.35 in1027.8 mb 0.00 in0.0 mm 0.00 in0.0 mm 0.00 in0.0 mm
10:25 AM 76.2°F24.6°C 64.7°F18.2°C 68% 2.5 mph SW4.0 kmh SW 3.7 mph6.0 kmh 30.35 in1027.8 mb 0.00 in0.0 mm 0.00 in0.0 mm 0.00 in0.0 mm
10:30 AM 76.4°F24.7°C 64.6°F18.1°C 67% 3.1 mph SW5.0 kmh SW 4.2 mph6.8 kmh 30.34 in1027.4 mb 0.00 in0.0 mm 0.00 in0.0 mm 0.00 in0.0 mm
10:35 AM 76.5°F24.7°C 64.4°F18.0°C 66% 2.8 mph WSW4.5 kmh WSW 4.2 mph6.8 kmh 30.34 in1027.4 mb 0.00 in0.0 mm 0.00 in0.0 mm 0.00 in0.0 mm
10:40 AM 76.2°F24.6°C 64.4°F18.0°C 67% 2.3 mph S3.7 kmh S 3.7 mph6.0 kmh 30.34 in1027.4 mb 0.00 in0.0 mm 0.00 in0.0 mm 0.00 in0.0 mm
10:45 AM 76.3°F24.6°C 64.9°F18.3°C 68% 3.0 mph SW4.8 kmh SW 4.2 mph6.8 kmh 30.34 in1027.4 mb 0.00 in0.0 mm 0.00 in0.0 mm 0.00 in0.0 mm
10:50 AM 75.8°F24.3°C 64.4°F18.0°C 68% 2.2 mph SSW3.5 kmh SSW 3.2 mph5.1 kmh 30.34 in1027.4 mb 0.00 in0.0 mm 0.00 in0.0 mm 0.00 in0.0 mm
10:55 AM 75.4°F24.1°C 64.8°F18.2°C 70% 2.6 mph SW4.2 kmh SW 4.7 mph7.6 kmh 30.34 in1027.4 mb 0.00 in0.0 mm 0.00 in0.0 mm 0.00 in0.0 mm
11:00 AM 76.5°F24.7°C 65.4°F18.6°C 69% 2.2 mph SW3.5 kmh SW 3.2 mph5.1 kmh 30.34 in1027.4 mb 0.00 in0.0 mm 0.00 in0.0 mm 0.00 in0.0 mm
11:05 AM 75.7°F24.3°C 65.2°F18.4°C 70% 2.7 mph SW4.3 kmh SW 4.2 mph6.8 kmh 30.34 in1027.4 mb 0.00 in0.0 mm 0.00 in0.0 mm 0.00 in0.0 mm
11:10 AM 75.6°F24.2°C 65.6°F18.7°C 71% 2.6 mph SW4.2 kmh SW 4.7 mph7.6 kmh 30.34 in1027.4 mb 0.00 in0.0 mm 0.00 in0.0 mm 0.00 in0.0 mm
11:15 AM 75.7°F24.3°C 65.6°F18.7°C 71% 2.8 mph SSW4.5 kmh SSW 4.7 mph7.6 kmh 30.33 in1027.1 mb 0.00 in0.0 mm 0.00 in0.0 mm 0.00 in0.0 mm
11:20 AM 74.7°F23.7°C 64.9°F18.3°C 72% 3.3 mph WSW5.3 kmh WSW 6.3 mph10.1 kmh 30.33 in1027.1 mb 0.00 in0.0 mm 0.00 in0.0 mm 0.00 in0.0 mm
11:25 AM 74.3°F23.5°C 65.2°F18.4°C 73% 3.0 mph SW4.8 kmh SW 5.3 mph8.5 kmh 30.33 in1027.1 mb 0.00 in0.0 mm 0.00 in0.0 mm 0.00 in0.0 mm
11:30 AM 74.3°F23.5°C 65.4°F18.6°C 74% 3.3 mph WSW5.3 kmh WSW 6.3 mph10.1 kmh 30.33 in1027.1 mb 0.00 in0.0 mm 0.00 in0.0 mm 0.00 in0.0 mm
11:35 AM 74.0°F23.3°C 65.2°F18.4°C 74% 3.4 mph WSW5.5 kmh WSW 5.8 mph9.3 kmh 30.33 in1027.1 mb 0.00 in0.0 mm 0.00 in0.0 mm 0.00 in0.0 mm
11:40 AM 74.7°F23.7°C 65.6°F18.7°C 73% 2.5 mph SSW4.0 kmh SSW 4.7 mph7.6 kmh 30.33 in1027.1 mb 0.00 in0.0 mm 0.00 in0.0 mm 0.00 in0.0 mm
11:45 AM 76.2°F24.6°C 66.3°F19.1°C 72% 3.3 mph WSW5.3 kmh WSW 6.3 mph10.1 kmh 30.33 in1027.1 mb 0.00 in0.0 mm 0.00 in0.0 mm 0.00 in0.0 mm
11:50 AM 76.5°F24.7°C 66.3°F19.1°C 71% 3.4 mph SW5.5 kmh SW 6.3 mph10.1 kmh 30.32 in1026.8 mb 0.00 in0.0 mm 0.00 in0.0 mm 0.00 in0.0 mm
11:55 AM 76.6°F24.8°C 66.5°F19.2°C 71% 2.4 mph SW3.9 kmh SW 4.7 mph7.6 kmh 30.32 in1026.8 mb 0.00 in0.0 mm 0.00 in0.0 mm 0.00 in0.0 mm
12:00 PM 76.9°F24.9°C 66.4°F19.1°C 70% 3.1 mph SW5.0 kmh SW 5.3 mph8.5 kmh 30.32 in1026.8 mb 0.00 in0.0 mm 0.00 in0.0 mm 0.00 in0.0 mm
12:05 PM 76.6°F24.8°C 66.3°F19.1°C 71% 3.1 mph SW5.0 kmh SW 4.2 mph6.8 kmh 30.31 in1026.4 mb 0.00 in0.0 mm 0.00 in0.0 mm 0.00 in0.0 mm
12:10 PM 76.2°F24.6°C 66.2°F19.0°C 71% 2.7 mph SW4.3 kmh SW 8.9 mph14.3 kmh 30.31 in1026.4 mb 0.00 in0.0 mm 0.00 in0.0 mm 0.00 in0.0 mm
12:15 PM 75.6°F24.2°C 66.3°F19.1°C 73% 2.9 mph WSW4.7 kmh WSW 4.2 mph6.8 kmh 30.31 in1026.4 mb 0.00 in0.0 mm 0.00 in0.0 mm 0.00 in0.0 mm
12:20 PM 74.8°F23.8°C 65.9°F18.8°C 74% 2.9 mph SW4.7 kmh SW 3.7 mph6.0 kmh 30.31 in1026.4 mb 0.00 in0.0 mm 0.00 in0.0 mm 0.00 in0.0 mm
12:25 PM 74.7°F23.7°C 66.2°F19.0°C 75% 2.7 mph WSW4.3 kmh WSW 4.7 mph7.6 kmh 30.31 in1026.4 mb 0.00 in0.0 mm 0.00 in0.0 mm 0.00 in0.0 mm
12:30 PM 75.9°F24.4°C 67.1°F19.5°C 74% 1.6 mph SW2.6 kmh SW 3.7 mph6.0 kmh 30.30 in1026.1 mb 0.00 in0.0 mm 0.00 in0.0 mm 0.00 in0.0 mm
12:35 PM 75.3°F24.1°C 66.7°F19.3°C 75% 2.3 mph SSW3.7 kmh SSW 4.7 mph7.6 kmh 30.30 in1026.1 mb 0.00 in0.0 mm 0.00 in0.0 mm 0.00 in0.0 mm
12:40 PM 75.2°F24.0°C 66.8°F19.3°C 75% 2.2 mph SSW3.5 kmh SSW 3.7 mph6.0 kmh 30.30 in1026.1 mb 0.00 in0.0 mm 0.00 in0.0 mm 0.00 in0.0 mm
12:45 PM 75.3°F24.1°C 67.1°F19.5°C 76% 1.8 mph W2.9 kmh W 4.2 mph6.8 kmh 30.30 in1026.1 mb 0.00 in0.0 mm 0.00 in0.0 mm 0.00 in0.0 mm
12:50 PM 75.4°F24.1°C 67.3°F19.6°C 76% 1.8 mph SW2.9 kmh SW 3.2 mph5.1 kmh 30.30 in1026.1 mb 0.00 in0.0 mm 0.00 in0.0 mm 0.00 in0.0 mm
12:55 PM 76.3°F24.6°C 67.5°F19.7°C 74% 2.4 mph SSW3.9 kmh SSW 4.2 mph6.8 kmh 30.29 in1025.7 mb 0.00 in0.0 mm 0.00 in0.0 mm 0.00 in0.0 mm
01:00 PM 76.3°F24.6°C 67.4°F19.7°C 74% 2.8 mph SW4.5 kmh SW 4.7 mph7.6 kmh 30.29 in1025.7 mb 0.00 in0.0 mm 0.00 in0.0 mm 0.00 in0.0 mm
01:05 PM 75.9°F24.4°C 67.4°F19.7°C 75% 2.9 mph SW4.7 kmh SW 4.2 mph6.8 kmh 30.29 in1025.7 mb 0.00 in0.0 mm 0.00 in0.0 mm 0.00 in0.0 mm
01:10 PM 75.2°F24.0°C 67.0°F19.4°C 76% 3.3 mph WSW5.3 kmh WSW 8.3 mph13.4 kmh 30.29 in1025.7 mb 0.00 in0.0 mm 0.00 in0.0 mm 0.00 in0.0 mm
01:15 PM 74.7°F23.7°C 66.6°F19.2°C 76% 3.8 mph SW6.1 kmh SW 6.3 mph10.1 kmh 30.28 in1025.4 mb 0.00 in0.0 mm 0.00 in0.0 mm 0.00 in0.0 mm
01:20 PM 74.3°F23.5°C 66.9°F19.4°C 78% 2.7 mph WSW4.3 kmh WSW 4.7 mph7.6 kmh 30.28 in1025.4 mb 0.00 in0.0 mm 0.00 in0.0 mm 0.00 in0.0 mm
01:25 PM 74.0°F23.3°C 66.7°F19.3°C 78% 2.7 mph WSW4.3 kmh WSW 4.7 mph7.6 kmh 30.28 in1025.4 mb 0.00 in0.0 mm 0.00 in0.0 mm 0.00 in0.0 mm
01:30 PM 74.0°F23.3°C 67.0°F19.4°C 79% 2.5 mph WSW4.0 kmh WSW 3.7 mph6.0 kmh 30.27 in1025.1 mb 0.00 in0.0 mm 0.00 in0.0 mm 0.00 in0.0 mm
01:35 PM 73.8°F23.2°C 66.9°F19.4°C 79% 3.5 mph SW5.6 kmh SW 5.3 mph8.5 kmh 30.27 in1025.1 mb 0.00 in0.0 mm 0.00 in0.0 mm 0.00 in0.0 mm
01:40 PM 73.8°F23.2°C 67.2°F19.6°C 80% 1.8 mph SW2.9 kmh SW 4.7 mph7.6 kmh 30.27 in1025.1 mb 0.00 in0.0 mm 0.00 in0.0 mm 0.00 in0.0 mm
01:45 PM 73.9°F23.3°C 67.1°F19.5°C 80% 2.0 mph SW3.2 kmh SW 2.7 mph4.3 kmh 30.27 in1025.1 mb 0.00 in0.0 mm 0.00 in0.0 mm 0.00 in0.0 mm
01:50 PM 73.6°F23.1°C 67.1°F19.5°C 80% 2.2 mph SW3.5 kmh SW 4.2 mph6.8 kmh 30.27 in1025.1 mb 0.00 in0.0 mm 0.00 in0.0 mm 0.00 in0.0 mm
01:55 PM 73.6°F23.1°C 67.3°F19.6°C 81% 1.5 mph WSW2.4 kmh WSW 2.7 mph4.3 kmh 30.27 in1025.1 mb 0.00 in0.0 mm 0.00 in0.0 mm 0.00 in0.0 mm
02:00 PM 73.4°F23.0°C 67.2°F19.6°C 81% 2.0 mph SW3.2 kmh SW 3.7 mph6.0 kmh 30.27 in1025.1 mb 0.00 in0.0 mm 0.00 in0.0 mm 0.00 in0.0 mm
02:05 PM 73.6°F23.1°C 67.4°F19.7°C 81% 2.4 mph SSW3.9 kmh SSW 4.2 mph6.8 kmh 30.26 in1024.7 mb 0.00 in0.0 mm 0.00 in0.0 mm 0.00 in0.0 mm
02:10 PM 73.9°F23.3°C 67.7°F19.8°C 81% 2.6 mph SW4.2 kmh SW 7.3 mph11.7 kmh 30.26 in1024.7 mb 0.00 in0.0 mm 0.00 in0.0 mm 0.00 in0.0 mm
02:15 PM 73.9°F23.3°C 67.9°F19.9°C 82% 1.8 mph SW2.9 kmh SW 4.7 mph7.6 kmh 30.26 in1024.7 mb 0.00 in0.0 mm 0.00 in0.0 mm 0.00 in0.0 mm
02:20 PM 73.8°F23.2°C 68.0°F20.0°C 82% 2.3 mph SW3.7 kmh SW 4.2 mph6.8 kmh 30.26 in1024.7 mb 0.00 in0.0 mm 0.00 in0.0 mm 0.00 in0.0 mm
02:25 PM 73.8°F23.2°C 67.9°F19.9°C 82% 2.2 mph SSW3.5 kmh SSW 3.2 mph5.1 kmh 30.26 in1024.7 mb 0.00 in0.0 mm 0.00 in0.0 mm 0.00 in0.0 mm
02:30 PM 73.6°F23.1°C 68.0°F20.0°C 83% 2.3 mph SW3.7 kmh SW 3.2 mph5.1 kmh 30.25 in1024.4 mb 0.00 in0.0 mm 0.00 in0.0 mm 0.00 in0.0 mm
02:35 PM 73.4°F23.0°C 67.9°F19.9°C 83% 2.0 mph SW3.2 kmh SW 5.8 mph9.3 kmh 30.25 in1024.4 mb 0.00 in0.0 mm 0.00 in0.0 mm 0.00 in0.0 mm
02:40 PM 73.4°F23.0°C 68.0°F20.0°C 83% 2.7 mph WSW4.3 kmh WSW 4.2 mph6.8 kmh 30.25 in1024.4 mb 0.00 in0.0 mm 0.00 in0.0 mm 0.00 in0.0 mm
02:45 PM 73.3°F22.9°C 68.2°F20.1°C 84% 2.2 mph SW3.5 kmh SW 4.2 mph6.8 kmh 30.25 in1024.4 mb 0.00 in0.0 mm 0.00 in0.0 mm 0.00 in0.0 mm
02:50 PM 73.6°F23.1°C 68.5°F20.3°C 84% 1.9 mph SW3.1 kmh SW 2.7 mph4.3 kmh 30.25 in1024.4 mb 0.00 in0.0 mm 0.00 in0.0 mm 0.00 in0.0 mm
02:55 PM 73.8°F23.2°C 68.5°F20.3°C 83% 2.0 mph SSW3.2 kmh SSW 2.7 mph4.3 kmh 30.25 in1024.4 mb 0.00 in0.0 mm 0.00 in0.0 mm 0.00 in0.0 mm
03:00 PM 73.8°F23.2°C 68.6°F20.3°C 84% 2.1 mph S3.4 kmh S 3.2 mph5.1 kmh 30.25 in1024.4 mb 0.00 in0.0 mm 0.00 in0.0 mm 0.00 in0.0 mm
03:05 PM 73.8°F23.2°C 68.7°F20.4°C 84% 2.4 mph SSW3.9 kmh SSW 3.2 mph5.1 kmh 30.24 in1024.0 mb 0.00 in0.0 mm 0.00 in0.0 mm 0.00 in0.0 mm
03:10 PM 73.7°F23.2°C 68.6°F20.3°C 84% 2.1 mph SW3.4 kmh SW 3.7 mph6.0 kmh 30.24 in1024.0 mb 0.00 in0.0 mm 0.00 in0.0 mm 0.00 in0.0 mm
03:15 PM 73.6°F23.1°C 68.5°F20.3°C 84% 2.1 mph SW3.4 kmh SW 3.2 mph5.1 kmh 30.23 in1023.7 mb 0.00 in0.0 mm 0.00 in0.0 mm 0.00 in0.0 mm
03:20 PM 73.6°F23.1°C 68.4°F20.2°C 84% 2.6 mph SW4.2 kmh SW 5.3 mph8.5 kmh 30.23 in1023.7 mb 0.00 in0.0 mm 0.00 in0.0 mm 0.00 in0.0 mm
03:25 PM 73.6°F23.1°C 68.5°F20.3°C 84% 2.0 mph SW3.2 kmh SW 3.7 mph6.0 kmh 30.23 in1023.7 mb 0.00 in0.0 mm 0.00 in0.0 mm 0.00 in0.0 mm
03:30 PM 73.4°F23.0°C 68.3°F20.2°C 84% 2.7 mph WSW4.3 kmh WSW 3.7 mph6.0 kmh 30.23 in1023.7 mb 0.00 in0.0 mm 0.00 in0.0 mm 0.00 in0.0 mm
03:35 PM 73.7°F23.2°C 68.9°F20.5°C 85% 2.5 mph SSW4.0 kmh SSW 5.3 mph8.5 kmh 30.23 in1023.7 mb 0.00 in0.0 mm 0.00 in0.0 mm 0.00 in0.0 mm
03:40 PM 73.6°F23.1°C 68.8°F20.4°C 85% 2.4 mph SW3.9 kmh SW 3.7 mph6.0 kmh 30.23 in1023.7 mb 0.00 in0.0 mm 0.00 in0.0 mm 0.00 in0.0 mm
03:45 PM 73.4°F23.0°C 68.6°F20.3°C 85% 2.7 mph SW4.3 kmh SW 4.2 mph6.8 kmh 30.23 in1023.7 mb 0.00 in0.0 mm 0.00 in0.0 mm 0.00 in0.0 mm
03:50 PM 73.5°F23.1°C 68.7°F20.4°C 85% 2.3 mph SW3.7 kmh SW 4.2 mph6.8 kmh 30.23 in1023.7 mb 0.00 in0.0 mm 0.00 in0.0 mm 0.00 in0.0 mm
03:55 PM 73.4°F23.0°C 68.6°F20.3°C 85% 2.4 mph SW3.9 kmh SW 3.2 mph5.1 kmh 30.23 in1023.7 mb 0.00 in0.0 mm 0.00 in0.0 mm 0.00 in0.0 mm
04:00 PM 73.7°F23.2°C 68.9°F20.5°C 85% 2.9 mph SW4.7 kmh SW 6.3 mph10.1 kmh 30.23 in1023.7 mb 0.00 in0.0 mm 0.00 in0.0 mm 0.00 in0.0 mm
04:05 PM 73.7°F23.2°C 68.9°F20.5°C 85% 2.6 mph SW4.2 kmh SW 3.7 mph6.0 kmh 30.23 in1023.7 mb 0.00 in0.0 mm 0.00 in0.0 mm 0.00 in0.0 mm
04:10 PM 73.7°F23.2°C 68.9°F20.5°C 85% 2.8 mph SW4.5 kmh SW 5.8 mph9.3 kmh 30.23 in1023.7 mb 0.00 in0.0 mm 0.00 in0.0 mm 0.00 in0.0 mm
04:15 PM 73.6°F23.1°C 68.8°F20.4°C 85% 2.4 mph SW3.9 kmh SW 4.2 mph6.8 kmh 30.23 in1023.7 mb 0.00 in0.0 mm 0.00 in0.0 mm 0.00 in0.0 mm
04:20 PM 73.6°F23.1°C 68.8°F20.4°C 85% 2.5 mph WSW4.0 kmh WSW 4.7 mph7.6 kmh 30.23 in1023.7 mb 0.00 in0.0 mm 0.00 in0.0 mm 0.00 in0.0 mm
04:25 PM 73.5°F23.1°C 68.7°F20.4°C 85% 2.1 mph SW3.4 kmh SW 4.7 mph7.6 kmh 30.23 in1023.7 mb 0.00 in0.0 mm 0.00 in0.0 mm 0.00 in0.0 mm
04:30 PM 73.4°F23.0°C 68.6°F20.3°C 85% 2.1 mph SW3.4 kmh SW 3.7 mph6.0 kmh 30.23 in1023.7 mb 0.00 in0.0 mm 0.00 in0.0 mm 0.00 in0.0 mm
04:35 PM 73.6°F23.1°C 68.8°F20.4°C 85% 2.5 mph SW4.0 kmh SW 3.7 mph6.0 kmh 30.23 in1023.7 mb 0.00 in0.0 mm 0.00 in0.0 mm 0.00 in0.0 mm
04:40 PM 73.6°F23.1°C 68.8°F20.4°C 85% 2.8 mph SW4.5 kmh SW 6.3 mph10.1 kmh 30.22 in1023.4 mb 0.00 in0.0 mm 0.00 in0.0 mm 0.00 in0.0 mm
04:45 PM 73.5°F23.1°C 68.7°F20.4°C 85% 3.0 mph WSW4.8 kmh WSW 6.3 mph10.1 kmh 30.22 in1023.4 mb 0.00 in0.0 mm 0.00 in0.0 mm 0.00 in0.0 mm
04:50 PM 73.4°F23.0°C 68.6°F20.3°C 85% 2.6 mph SW4.2 kmh SW 5.3 mph8.5 kmh 30.22 in1023.4 mb 0.00 in0.0 mm 0.00 in0.0 mm 0.00 in0.0 mm
04:55 PM 73.4°F23.0°C 68.6°F20.3°C 85% 2.5 mph SW4.0 kmh SW 3.7 mph6.0 kmh 30.22 in1023.4 mb 0.00 in0.0 mm 0.00 in0.0 mm 0.00 in0.0 mm
05:00 PM 73.4°F23.0°C 68.6°F20.3°C 85% 3.4 mph WSW5.5 kmh WSW 6.3 mph10.1 kmh 30.22 in1023.4 mb 0.00 in0.0 mm 0.00 in0.0 mm 0.00 in0.0 mm
05:05 PM 73.2°F22.9°C 68.4°F20.2°C 85% 3.1 mph WSW5.0 kmh WSW 5.8 mph9.3 kmh 30.22 in1023.4 mb 0.00 in0.0 mm 0.00 in0.0 mm 0.00 in0.0 mm
05:10 PM 73.1°F22.8°C 68.3°F20.2°C 85% 4.1 mph SW6.6 kmh SW 8.3 mph13.4 kmh 30.22 in1023.4 mb 0.00 in0.0 mm 0.00 in0.0 mm 0.00 in0.0 mm
05:15 PM 72.9°F22.7°C 68.3°F20.2°C 86% 3.3 mph SW5.3 kmh SW 6.8 mph10.9 kmh 30.22 in1023.4 mb 0.00 in0.0 mm 0.00 in0.0 mm 0.00 in0.0 mm
05:20 PM 72.9°F22.7°C 68.5°F20.3°C 86% 3.2 mph SW5.1 kmh SW 4.7 mph7.6 kmh 30.22 in1023.4 mb 0.00 in0.0 mm 0.00 in0.0 mm 0.00 in0.0 mm
05:25 PM 72.9°F22.7°C 68.5°F20.3°C 86% 2.8 mph SW4.5 kmh SW 4.2 mph6.8 kmh 30.22 in1023.4 mb 0.00 in0.0 mm 0.00 in0.0 mm 0.00 in0.0 mm
05:30 PM 72.7°F22.6°C 68.3°F20.2°C 86% 2.8 mph SW4.5 kmh SW 5.3 mph8.5 kmh 30.22 in1023.4 mb 0.00 in0.0 mm 0.00 in0.0 mm 0.00 in0.0 mm
05:35 PM 72.7°F22.6°C 68.3°F20.2°C 86% 3.4 mph SW5.5 kmh SW 6.3 mph10.1 kmh 30.22 in1023.4 mb 0.00 in0.0 mm 0.00 in0.0 mm 0.00 in0.0 mm
05:40 PM 72.7°F22.6°C 68.3°F20.2°C 86% 3.1 mph SW5.0 kmh SW 4.2 mph6.8 kmh 30.21 in1023.0 mb 0.00 in0.0 mm 0.00 in0.0 mm 0.00 in0.0 mm
05:45 PM 72.7°F22.6°C 68.3°F20.2°C 86% 3.0 mph SW4.8 kmh SW 6.8 mph10.9 kmh 30.21 in1023.0 mb 0.00 in0.0 mm 0.00 in0.0 mm 0.00 in0.0 mm
05:50 PM 72.5°F22.5°C 68.1°F20.1°C 86% 3.0 mph SW4.8 kmh SW 5.3 mph8.5 kmh 30.21 in1023.0 mb 0.00 in0.0 mm 0.00 in0.0 mm 0.00 in0.0 mm
05:55 PM 72.5°F22.5°C 68.4°F20.2°C 87% 3.3 mph SW5.3 kmh SW 6.3 mph10.1 kmh 30.21 in1023.0 mb 0.00 in0.0 mm 0.00 in0.0 mm 0.00 in0.0 mm
06:00 PM 72.5°F22.5°C 68.4°F20.2°C 87% 4.5 mph SW7.2 kmh SW 6.8 mph10.9 kmh 30.21 in1023.0 mb 0.00 in0.0 mm 0.00 in0.0 mm 0.00 in0.0 mm
06:05 PM 72.5°F22.5°C 68.4°F20.2°C 87% 3.4 mph S5.5 kmh S 5.3 mph8.5 kmh 30.21 in1023.0 mb 0.00 in0.0 mm 0.00 in0.0 mm 0.00 in0.0 mm
06:10 PM 72.3°F22.4°C 68.2°F20.1°C 87% 4.2 mph SSW6.8 kmh SSW 6.8 mph10.9 kmh 30.21 in1023.0 mb 0.00 in0.0 mm 0.00 in0.0 mm 0.00 in0.0 mm
06:15 PM 72.3°F22.4°C 68.2°F20.1°C 87% 3.4 mph SW5.5 kmh SW 5.8 mph9.3 kmh 30.21 in1023.0 mb 0.00 in0.0 mm 0.00 in0.0 mm 0.00 in0.0 mm
06:20 PM 72.3°F22.4°C 68.5°F20.3°C 88% 3.5 mph W5.6 kmh W 5.8 mph9.3 kmh 30.21 in1023.0 mb 0.00 in0.0 mm 0.00 in0.0 mm 0.00 in0.0 mm
06:25 PM 72.3°F22.4°C 68.5°F20.3°C 88% 3.6 mph SW5.8 kmh SW 5.3 mph8.5 kmh 30.20 in1022.7 mb 0.00 in0.0 mm 0.00 in0.0 mm 0.00 in0.0 mm
06:30 PM 72.3°F22.4°C 68.5°F20.3°C 88% 4.2 mph SW6.8 kmh SW 6.3 mph10.1 kmh 30.20 in1022.7 mb 0.00 in0.0 mm 0.00 in0.0 mm 0.00 in0.0 mm
06:35 PM 72.3°F22.4°C 68.5°F20.3°C 88% 3.4 mph SW5.5 kmh SW 6.3 mph10.1 kmh 30.20 in1022.7 mb 0.00 in0.0 mm 0.00 in0.0 mm 0.00 in0.0 mm
06:40 PM 72.1°F22.3°C 68.3°F20.2°C 88% 4.0 mph SW6.4 kmh SW 6.3 mph10.1 kmh 30.21 in1023.0 mb 0.00 in0.0 mm 0.00 in0.0 mm 0.00 in0.0 mm
06:45 PM 72.1°F22.3°C 68.3°F20.2°C 88% 4.1 mph SW6.6 kmh SW 6.8 mph10.9 kmh 30.21 in1023.0 mb 0.00 in0.0 mm 0.00 in0.0 mm 0.00 in0.0 mm
06:50 PM 72.1°F22.3°C 68.6°F20.3°C 89% 4.5 mph WSW7.2 kmh WSW 6.3 mph10.1 kmh 30.21 in1023.0 mb 0.00 in0.0 mm 0.00 in0.0 mm 0.00 in0.0 mm
06:55 PM 72.1°F22.3°C 68.7°F20.4°C 89% 4.1 mph SW6.6 kmh SW 6.8 mph10.9 kmh 30.22 in1023.4 mb 0.00 in0.0 mm 0.00 in0.0 mm 0.00 in0.0 mm
07:00 PM 72.1°F22.3°C 68.7°F20.4°C 89% 3.6 mph SW5.8 kmh SW 5.3 mph8.5 kmh 30.22 in1023.4 mb 0.00 in0.0 mm 0.00 in0.0 mm 0.00 in0.0 mm
07:05 PM 72.1°F22.3°C 68.7°F20.4°C 89% 5.1 mph WSW8.2 kmh WSW 7.8 mph12.6 kmh 30.22 in1023.4 mb 0.00 in0.0 mm 0.00 in0.0 mm 0.00 in0.0 mm
07:10 PM 72.1°F22.3°C 68.7°F20.4°C 89% 4.0 mph SSW6.4 kmh SSW 8.3 mph13.4 kmh 30.22 in1023.4 mb 0.00 in0.0 mm 0.00 in0.0 mm 0.00 in0.0 mm
07:15 PM 72.1°F22.3°C 68.7°F20.4°C 89% 4.4 mph WSW7.1 kmh WSW 8.3 mph13.4 kmh 30.21 in1023.0 mb 0.00 in0.0 mm 0.00 in0.0 mm 0.00 in0.0 mm
07:20 PM 72.1°F22.3°C 68.7°F20.4°C 89% 3.6 mph SW5.8 kmh SW 5.8 mph9.3 kmh 30.21 in1023.0 mb 0.00 in0.0 mm 0.00 in0.0 mm 0.00 in0.0 mm
07:25 PM 72.1°F22.3°C 68.7°F20.4°C 89% 3.5 mph SW5.6 kmh SW 6.3 mph10.1 kmh 30.21 in1023.0 mb 0.00 in0.0 mm 0.00 in0.0 mm 0.00 in0.0 mm
07:30 PM 72.1°F22.3°C 68.7°F20.4°C 89% 5.2 mph SW8.4 kmh SW 9.4 mph15.1 kmh 30.21 in1023.0 mb 0.00 in0.0 mm 0.00 in0.0 mm 0.00 in0.0 mm
07:35 PM 72.1°F22.3°C 68.9°F20.5°C 90% 3.6 mph WSW5.8 kmh WSW 6.3 mph10.1 kmh 30.21 in1023.0 mb 0.00 in0.0 mm 0.00 in0.0 mm 0.00 in0.0 mm
07:40 PM 72.1°F22.3°C 69.0°F20.6°C 90% 3.8 mph SSW6.1 kmh SSW 5.3 mph8.5 kmh 30.21 in1023.0 mb 0.00 in0.0 mm 0.00 in0.0 mm 0.00 in0.0 mm
07:45 PM 72.1°F22.3°C 69.0°F20.6°C 90% 4.1 mph WSW6.6 kmh WSW 7.8 mph12.6 kmh 30.21 in1023.0 mb 0.00 in0.0 mm 0.00 in0.0 mm 0.00 in0.0 mm
07:50 PM 72.1°F22.3°C 69.0°F20.6°C 90% 3.9 mph WSW6.3 kmh WSW 6.3 mph10.1 kmh 30.21 in1023.0 mb 0.00 in0.0 mm 0.00 in0.0 mm 0.00 in0.0 mm
07:55 PM 72.1°F22.3°C 69.0°F20.6°C 90% 4.1 mph SW6.6 kmh SW 8.3 mph13.4 kmh 30.22 in1023.4 mb 0.00 in0.0 mm 0.00 in0.0 mm 0.00 in0.0 mm
08:00 PM 72.1°F22.3°C 69.0°F20.6°C 90% 4.5 mph SW7.2 kmh SW 6.8 mph10.9 kmh 30.22 in1023.4 mb 0.00 in0.0 mm 0.00 in0.0 mm 0.00 in0.0 mm
08:05 PM 72.1°F22.3°C 69.1°F20.6°C 90% 3.5 mph SSW5.6 kmh SSW 5.8 mph9.3 kmh 30.22 in1023.4 mb 0.00 in0.0 mm 0.00 in0.0 mm 0.00 in0.0 mm
08:10 PM 72.1°F22.3°C 69.3°F20.7°C 91% 3.2 mph SW5.1 kmh SW 6.8 mph10.9 kmh 30.22 in1023.4 mb 0.00 in0.0 mm 0.00 in0.0 mm 0.00 in0.0 mm
08:15 PM 72.1°F22.3°C 69.3°F20.7°C 91% 3.9 mph SW6.3 kmh SW 6.8 mph10.9 kmh 30.22 in1023.4 mb 0.00 in0.0 mm 0.00 in0.0 mm 0.00 in0.0 mm
08:20 PM 72.1°F22.3°C 69.3°F20.7°C 91% 2.9 mph WSW4.7 kmh WSW 6.3 mph10.1 kmh 30.22 in1023.4 mb 0.00 in0.0 mm 0.00 in0.0 mm 0.00 in0.0 mm
08:25 PM 72.1°F22.3°C 69.3°F20.7°C 91% 3.7 mph WSW6.0 kmh WSW 6.3 mph10.1 kmh 30.22 in1023.4 mb 0.00 in0.0 mm 0.00 in0.0 mm 0.00 in0.0 mm
08:30 PM 72.1°F22.3°C 69.3°F20.7°C 91% 2.7 mph WSW4.3 kmh WSW 4.2 mph6.8 kmh 30.22 in1023.4 mb 0.00 in0.0 mm 0.00 in0.0 mm 0.00 in0.0 mm
08:35 PM 72.1°F22.3°C 69.3°F20.7°C 91% 3.3 mph WSW5.3 kmh WSW 7.8 mph12.6 kmh 30.22 in1023.4 mb 0.00 in0.0 mm 0.00 in0.0 mm 0.00 in0.0 mm
08:40 PM 72.1°F22.3°C 69.3°F20.7°C 91% 4.0 mph SW6.4 kmh SW 7.8 mph12.6 kmh 30.22 in1023.4 mb 0.00 in0.0 mm 0.00 in0.0 mm 0.00 in0.0 mm
08:45 PM 72.1°F22.3°C 69.3°F20.7°C 91% 3.3 mph SW5.3 kmh SW 5.8 mph9.3 kmh 30.22 in1023.4 mb 0.00 in0.0 mm 0.00 in0.0 mm 0.00 in0.0 mm
08:50 PM 72.1°F22.3°C 69.3°F20.7°C 91% 3.4 mph SW5.5 kmh SW 5.8 mph9.3 kmh 30.22 in1023.4 mb 0.00 in0.0 mm 0.00 in0.0 mm 0.00 in0.0 mm
08:55 PM 72.1°F22.3°C 69.3°F20.7°C 91% 4.0 mph SW6.4 kmh SW 8.9 mph14.3 kmh 30.22 in1023.4 mb 0.00 in0.0 mm 0.00 in0.0 mm 0.00 in0.0 mm
09:00 PM 72.1°F22.3°C 69.3°F20.7°C 91% 4.3 mph SW6.9 kmh SW 6.3 mph10.1 kmh 30.22 in1023.4 mb 0.00 in0.0 mm 0.00 in0.0 mm 0.00 in0.0 mm
09:05 PM 72.1°F22.3°C 69.3°F20.7°C 91% 3.6 mph SW5.8 kmh SW 6.8 mph10.9 kmh 30.22 in1023.4 mb 0.00 in0.0 mm 0.00 in0.0 mm 0.00 in0.0 mm
09:10 PM 72.1°F22.3°C 69.3°F20.7°C 91% 4.4 mph SW7.1 kmh SW 7.3 mph11.7 kmh 30.22 in1023.4 mb 0.00 in0.0 mm 0.00 in0.0 mm 0.00 in0.0 mm
09:15 PM 72.1°F22.3°C 69.6°F20.9°C 92% 3.5 mph SW5.6 kmh SW 5.3 mph8.5 kmh 30.22 in1023.4 mb 0.00 in0.0 mm 0.00 in0.0 mm 0.00 in0.0 mm
09:20 PM 72.1°F22.3°C 69.6°F20.9°C 92% 4.2 mph SW6.8 kmh SW 5.8 mph9.3 kmh 30.22 in1023.4 mb 0.00 in0.0 mm 0.00 in0.0 mm 0.00 in0.0 mm
09:25 PM 72.1°F22.3°C 69.6°F20.9°C 92% 3.4 mph SW5.5 kmh SW 5.8 mph9.3 kmh 30.22 in1023.4 mb 0.00 in0.0 mm 0.00 in0.0 mm 0.00 in0.0 mm
09:30 PM 72.1°F22.3°C 69.6°F20.9°C 92% 3.0 mph SW4.8 kmh SW 4.7 mph7.6 kmh 30.22 in1023.4 mb 0.00 in0.0 mm 0.00 in0.0 mm 0.00 in0.0 mm
09:35 PM 72.1°F22.3°C 69.6°F20.9°C 92% 2.6 mph SW4.2 kmh SW 3.7 mph6.0 kmh 30.22 in1023.4 mb 0.00 in0.0 mm 0.00 in0.0 mm 0.00 in0.0 mm
09:40 PM 72.1°F22.3°C 69.6°F20.9°C 92% 2.8 mph SW4.5 kmh SW 4.2 mph6.8 kmh 30.22 in1023.4 mb 0.00 in0.0 mm 0.00 in0.0 mm 0.00 in0.0 mm
09:45 PM 72.1°F22.3°C 69.6°F20.9°C 92% 2.2 mph SW3.5 kmh SW 4.7 mph7.6 kmh 30.22 in1023.4 mb 0.00 in0.0 mm 0.00 in0.0 mm 0.00 in0.0 mm
09:50 PM 72.0°F22.2°C 69.5°F20.8°C 92% 1.9 mph WSW3.1 kmh WSW 4.2 mph6.8 kmh 30.21 in1023.0 mb 0.00 in0.0 mm 0.00 in0.0 mm 0.00 in0.0 mm
09:55 PM 72.0°F22.2°C 69.5°F20.8°C 92% 2.0 mph WSW3.2 kmh WSW 4.7 mph7.6 kmh 30.21 in1023.0 mb 0.00 in0.0 mm 0.00 in0.0 mm 0.00 in0.0 mm
10:00 PM 72.0°F22.2°C 69.5°F20.8°C 92% 2.4 mph WSW3.9 kmh WSW 4.2 mph6.8 kmh 30.21 in1023.0 mb 0.00 in0.0 mm 0.00 in0.0 mm 0.00 in0.0 mm
10:05 PM 72.0°F22.2°C 69.5°F20.8°C 92% 2.6 mph WSW4.2 kmh WSW 4.7 mph7.6 kmh 30.22 in1023.4 mb 0.00 in0.0 mm 0.00 in0.0 mm 0.00 in0.0 mm
10:10 PM 72.0°F22.2°C 69.6°F20.9°C 92% 1.7 mph WSW2.7 kmh WSW 4.2 mph6.8 kmh 30.22 in1023.4 mb 0.00 in0.0 mm 0.00 in0.0 mm 0.00 in0.0 mm
10:15 PM 72.0°F22.2°C 69.9°F21.1°C 93% 1.8 mph WSW2.9 kmh WSW 4.2 mph6.8 kmh 30.22 in1023.4 mb 0.00 in0.0 mm 0.00 in0.0 mm 0.00 in0.0 mm
10:20 PM 72.0°F22.2°C 69.9°F21.1°C 93% 1.5 mph W2.4 kmh W 2.7 mph4.3 kmh 30.22 in1023.4 mb 0.00 in0.0 mm 0.00 in0.0 mm 0.00 in0.0 mm
10:25 PM 72.0°F22.2°C 69.9°F21.1°C 93% 1.4 mph WSW2.3 kmh WSW 3.2 mph5.1 kmh 30.22 in1023.4 mb 0.00 in0.0 mm 0.00 in0.0 mm 0.00 in0.0 mm
10:30 PM 72.0°F22.2°C 69.9°F21.1°C 93% 1.5 mph WSW2.4 kmh WSW 3.2 mph5.1 kmh 30.21 in1023.0 mb 0.00 in0.0 mm 0.00 in0.0 mm 0.00 in0.0 mm
10:35 PM 72.0°F22.2°C 69.9°F21.1°C 93% 1.0 mph SSW1.6 kmh SSW 2.2 mph3.5 kmh 30.21 in1023.0 mb 0.00 in0.0 mm 0.00 in0.0 mm 0.00 in0.0 mm
10:40 PM 71.8°F22.1°C 69.7°F20.9°C 93% 1.8 mph SW2.9 kmh SW 3.7 mph6.0 kmh 30.21 in1023.0 mb 0.00 in0.0 mm 0.00 in0.0 mm 0.00 in0.0 mm
10:45 PM 71.8°F22.1°C 69.7°F20.9°C 93% 1.3 mph WSW2.1 kmh WSW 2.7 mph4.3 kmh 30.21 in1023.0 mb 0.00 in0.0 mm 0.00 in0.0 mm 0.00 in0.0 mm
10:50 PM 71.8°F22.1°C 69.7°F20.9°C 93% 0.9 mph SSW1.4 kmh SSW 3.2 mph5.1 kmh 30.20 in1022.7 mb 0.00 in0.0 mm 0.00 in0.0 mm 0.00 in0.0 mm
10:55 PM 71.8°F22.1°C 69.7°F20.9°C 93% 0.9 mph SW1.4 kmh SW 3.7 mph6.0 kmh 30.20 in1022.7 mb 0.00 in0.0 mm 0.00 in0.0 mm 0.00 in0.0 mm
11:00 PM 71.8°F22.1°C 69.7°F20.9°C 93% 1.1 mph WSW1.8 kmh WSW 2.7 mph4.3 kmh 30.20 in1022.7 mb 0.00 in0.0 mm 0.00 in0.0 mm 0.00 in0.0 mm
11:05 PM 71.8°F22.1°C 69.9°F21.1°C 94% 0.9 mph S1.4 kmh S 2.7 mph4.3 kmh 30.20 in1022.7 mb 0.00 in0.0 mm 0.00 in0.0 mm 0.00 in0.0 mm
11:10 PM 71.8°F22.1°C 70.0°F21.1°C 94% 0.3 mph W0.5 kmh W 2.2 mph3.5 kmh 30.20 in1022.7 mb 0.00 in0.0 mm 0.00 in0.0 mm 0.00 in0.0 mm
11:15 PM 71.8°F22.1°C 70.0°F21.1°C 94% 0.1 mph WSW0.2 kmh WSW 1.1 mph1.8 kmh 30.20 in1022.7 mb 0.00 in0.0 mm 0.00 in0.0 mm 0.00 in0.0 mm
11:20 PM 71.6°F22.0°C 69.8°F21.0°C 94% 0.1 mph WSW0.2 kmh WSW 1.7 mph2.7 kmh 30.20 in1022.7 mb 0.00 in0.0 mm 0.00 in0.0 mm 0.00 in0.0 mm
11:25 PM 71.6°F22.0°C 69.8°F21.0°C 94% 0.1 mph N0.2 kmh N 1.1 mph1.8 kmh 30.20 in1022.7 mb 0.00 in0.0 mm 0.00 in0.0 mm 0.00 in0.0 mm
11:30 PM 71.6°F22.0°C 69.8°F21.0°C 94% Calm Calm -- 30.20 in1022.7 mb 0.00 in0.0 mm 0.00 in0.0 mm 0.00 in0.0 mm
11:35 PM 71.6°F22.0°C 69.8°F21.0°C 94% 0.8 mph WSW1.3 kmh WSW 2.2 mph3.5 kmh 30.20 in1022.7 mb 0.00 in0.0 mm 0.00 in0.0 mm 0.00 in0.0 mm
11:40 PM 71.6°F22.0°C 69.8°F21.0°C 94% 0.3 mph WSW0.5 kmh WSW 3.2 mph5.1 kmh 30.20 in1022.7 mb 0.00 in0.0 mm 0.00 in0.0 mm 0.00 in0.0 mm
11:45 PM 71.6°F22.0°C 69.8°F21.0°C 94% 0.1 mph N0.2 kmh N 1.1 mph1.8 kmh 30.20 in1022.7 mb 0.00 in0.0 mm 0.00 in0.0 mm 0.00 in0.0 mm
11:50 PM 71.6°F22.0°C 69.8°F21.0°C 94% Calm Calm -- 30.20 in1022.7 mb 0.00 in0.0 mm 0.00 in0.0 mm 0.00 in0.0 mm
11:55 PM 71.6°F22.0°C 69.8°F21.0°C 94% Calm Calm -- 30.20 in1022.7 mb 0.00 in0.0 mm 0.00 in0.0 mm 0.00 in0.0 mm